Latest Weather Observations for Redcliffe

IDQ60901

Issued at 2:05 pm EST Saturday 30 August 2014 (issued every 10 minutes, with the page automatically refreshed every 10 minutes)

About weather observations | Map of Brisbane area stations | Latest observations for Brisbane area | Other Formats
Station Details ID: 040958 Name: REDCLIFFE Lat: -27.22 Lon: 153.09 Height: 12.6 m
Data from the previous 72 hours. | See also: Recent months at Redcliffe
Date/Time
EST
Tmp

°C
App
Tmp
°C
Dew
Point
°C
Rel
Hum
%
Delta-T

°C
Wind Press
QNH
hPa
Press
MSL
hPa
Rain
since
9 am
mm
Dir
 
Spd
km/h
Gust
km/h
Spd
kts
Gust
kts
30/02:00pm 20.6 16.7 7.2 42 6.8 ENE 17 19 9 10 1016.6 1016.6 0.0
30/01:30pm 20.4 17.2 6.7 41 6.9 ENE 13 15 7 8 1016.7 1016.7 0.0
30/01:00pm 20.3 17.4 6.3 40 7.0 E 11 13 6 7 1017.1 1017.1 0.0
30/12:30pm 19.9 16.1 5.9 40 6.9 E 15 15 8 8 1017.6 1017.6 0.0
30/12:00pm 20.3 17.7 9.2 49 5.9 E 13 15 7 8 1018.1 1018.1 0.0
30/11:30am 21.2 18.6 7.8 42 6.9 ENE 11 13 6 7 1018.7 1018.7 0.0
30/11:00am 20.2 18.4 10.9 55 5.1 NE 11 13 6 7 1019.1 1019.1 0.0
30/10:30am 19.2 17.1 9.7 54 5.0 SE 11 15 6 8 1019.6 1019.6 0.0
30/10:00am 19.2 17.4 9.4 53 5.2 SE 9 11 5 6 1019.7 1019.7 0.0
30/09:30am 18.1 16.6 10.5 61 4.1 E 9 11 5 6 1020.0 1020.0 0.0
30/09:00am 17.0 16.5 10.8 67 3.3 WNW 4 7 2 4 1020.2 1020.2 0.0
30/08:30am 15.3 13.4 9.2 67 3.1 W 9 11 5 6 1020.3 1020.3 0.0
30/08:00am 13.9 11.6 9.1 73 2.4 WSW 11 13 6 7 1020.5 1020.5 0.0
30/07:30am 12.7 10.8 9.0 78 1.9 W 9 13 5 7 1020.3 1020.3 0.0
30/07:00am 10.9 9.2 8.5 85 1.2 SW 7 9 4 5 1020.3 1020.3 0.0
30/06:30am 10.0 8.2 8.1 88 0.9 WSW 7 7 4 4 1020.0 1020.0 0.0
30/06:00am 9.8 7.7 8.2 90 0.8 WSW 9 11 5 6 1019.6 1019.6 0.0
30/05:30am 9.5 7.6 7.6 88 0.9 SW 7 11 4 6 1019.2 1019.2 0.0
30/05:00am 9.9 7.4 8.0 88 0.9 W 11 13 6 7 1019.1 1019.1 0.0
30/04:30am 10.1 7.6 8.0 87 1.0 W 11 13 6 7 1019.0 1019.0 0.0
30/04:00am 10.5 8.0 8.3 86 1.1 W 11 11 6 6 1018.9 1018.9 0.0
30/03:30am 10.6 8.5 8.4 86 1.1 W 9 11 5 6 1018.9 1018.9 0.0
30/03:00am 10.8 8.3 8.4 85 1.2 W 11 11 6 6 1019.1 1019.1 0.0
30/02:30am 11.2 8.8 8.8 85 1.2 W 11 13 6 7 1019.3 1019.3 0.0
30/02:00am 11.4 9.4 8.8 84 1.3 W 9 11 5 6 1019.4 1019.4 0.0
30/01:30am 11.4 9.0 8.6 83 1.4 W 11 11 6 6 1019.6 1019.6 0.0
30/01:00am 11.8 9.6 9.2 84 1.3 W 11 13 6 7 1019.9 1019.9 0.0
30/12:30am 11.8 9.4 8.8 82 1.5 W 11 13 6 7 1020.2 1020.2 0.0
30/12:00am 12.0 9.8 9.4 84 1.3 W 11 13 6 7 1020.2 1020.2 0.0
 
Date/Time
EST
Tmp

°C
App
Tmp
°C
Dew
Point
°C
Rel
Hum
%
Delta-T

°C
Wind Press
QNH
hPa
Press
MSL
hPa
Rain
since
9 am
mm
Dir
 
Spd
km/h
Gust
km/h
Spd
kts
Gust
kts
29/11:30pm 12.2 10.0 9.4 83 1.4 WSW 11 15 6 8 1020.3 1020.3 0.0
29/11:00pm 12.9 10.0 9.7 81 1.6 WSW 15 17 8 9 1020.5 1020.5 0.0
29/10:30pm 12.8 10.6 9.4 80 1.7 WSW 11 13 6 7 1020.5 1020.5 0.0
29/10:00pm 13.4 11.7 9.8 79 1.8 W 9 11 5 6 1020.6 1020.6 0.0
29/09:30pm 13.3 11.6 9.7 79 1.8 W 9 11 5 6 1020.7 1020.7 0.0
29/09:00pm 14.1 14.1 9.9 76 2.2 CALM 0 0 0 0 1020.6 1020.6 0.0
29/08:30pm 15.2 13.9 10.0 71 2.7 SE 7 9 4 5 1020.5 1020.5 0.0
29/08:00pm 15.8 14.1 9.9 68 3.1 ESE 9 11 5 6 1020.6 1020.6 0.0
29/07:30pm 16.9 14.6 10.3 65 3.5 SE 13 15 7 8 1020.6 1020.6 0.0
29/07:00pm 17.2 14.4 9.9 62 3.8 ESE 15 17 8 9 1020.5 1020.5 0.0
29/06:30pm 17.5 14.1 9.2 58 4.3 ESE 17 19 9 10 1020.3 1020.3 0.0
29/06:00pm 17.6 13.7 9.5 59 4.2 ESE 20 26 11 14 1020.1 1020.1 0.0
29/05:30pm 17.8 14.2 9.9 60 4.2 ESE 19 22 10 12 1019.9 1019.9 0.0
29/05:00pm 18.2 14.5 10.1 59 4.3 ESE 20 26 11 14 1019.4 1019.4 0.0
29/04:30pm 18.5 14.6 9.6 56 4.7 E 20 26 11 14 1019.1 1019.1 0.0
29/04:00pm 18.9 14.2 9.4 54 5.0 E 24 28 13 15 1019.0 1019.0 0.0
29/03:30pm 19.2 15.2 8.2 49 5.7 E 19 20 10 11 1019.0 1019.0 0.0
29/03:00pm 19.4 15.8 6.8 44 6.3 E 15 19 8 10 1018.9 1018.9 0.0
29/02:30pm 19.7 16.4 8.1 47 6.0 ENE 15 17 8 9 1019.2 1019.2 0.0
29/02:00pm 19.4 15.6 7.5 46 6.1 E 17 19 9 10 1019.4 1019.4 0.0
29/01:30pm 19.3 15.3 6.8 44 6.3 E 17 17 9 9 1019.8 1019.8 0.0
29/01:00pm 19.0 15.5 7.1 46 6.0 E 15 17 8 9 1020.1 1020.1 0.0
29/12:30pm 19.9 17.0 8.3 47 6.0 E 13 15 7 8 1020.7 1020.7 0.0
29/12:00pm 20.4 17.4 7.7 44 6.5 E 13 13 7 7 1021.2 1021.2 0.0
29/11:30am 19.6 17.0 6.3 42 6.6 SSE 9 13 5 7 1021.6 1021.6 0.0
29/11:00am 19.4 16.2 6.8 44 6.3 S 13 15 7 8 1022.0 1022.0 0.0
29/10:30am 19.2 15.8 7.6 47 5.9 S 15 17 8 9 1022.5 1022.5 0.0
29/10:00am 19.1 15.8 8.1 49 5.6 S 15 19 8 10 1022.9 1022.9 0.0
29/09:30am 18.0 14.0 6.5 47 5.7 S 17 20 9 11 1023.0 1023.0 0.0
29/09:00am 17.8 14.8 7.8 52 5.1 SSW 13 20 7 11 1023.2 1023.2 0.0
29/08:30am 16.7 12.3 7.4 54 4.6 SSW 20 26 11 14 1023.1 1023.1 0.0
29/08:00am 15.7 11.8 7.0 56 4.3 SSW 17 24 9 13 1023.1 1023.1 0.0
29/07:30am 14.4 11.7 7.2 62 3.5 SW 11 13 6 7 1022.8 1022.8 0.0
29/07:00am 12.9 9.7 6.9 67 2.9 SW 13 15 7 8 1022.4 1022.4 0.0
29/06:30am 12.2 9.3 6.7 69 2.6 WSW 11 13 6 7 1022.2 1022.2 0.0
29/06:00am 12.5 10.1 6.8 68 2.7 W 9 11 5 6 1022.0 1022.0 0.0
29/05:30am 12.3 9.9 6.8 69 2.6 W 9 11 5 6 1021.6 1021.6 0.0
29/05:00am 12.0 9.6 7.1 72 2.3 W 9 13 5 7 1021.3 1021.3 0.0
29/04:30am 12.2 9.4 7.1 71 2.5 SW 11 13 6 7 1021.1 1021.1 0.0
29/04:00am 12.5 10.2 7.4 71 2.5 WSW 9 11 5 6 1021.0 1021.0 0.0
29/03:30am 12.2 9.1 7.3 72 2.4 WSW 13 17 7 9 1020.9 1020.9 0.0
29/03:00am 12.5 9.9 7.6 72 2.4 W 11 15 6 8 1021.0 1021.0 0.0
29/02:30am 12.7 10.5 8.0 73 2.3 WSW 9 13 5 7 1021.1 1021.1 0.0
29/02:00am 12.8 10.3 8.1 73 2.3 SW 11 13 6 7 1021.1 1021.1 0.0
29/01:30am 12.9 10.0 8.2 73 2.3 WSW 13 17 7 9 1021.2 1021.2 0.0
29/01:00am 13.0 9.8 8.5 74 2.2 SW 15 19 8 10 1021.6 1021.6 0.0
29/12:30am 13.1 10.3 8.6 74 2.2 WSW 13 17 7 9 1021.7 1021.7 0.0
29/12:00am 13.5 10.7 8.6 72 2.4 SW 13 15 7 8 1021.7 1021.7 0.0
 
Date/Time
EST
Tmp

°C
App
Tmp
°C
Dew
Point
°C
Rel
Hum
%
Delta-T

°C
Wind Press
QNH
hPa
Press
MSL
hPa
Rain
since
9 am
mm
Dir
 
Spd
km/h
Gust
km/h
Spd
kts
Gust
kts
28/11:30pm 13.9 11.6 8.9 72 2.5 SW 11 15 6 8 1021.7 1021.7 0.0
28/11:00pm 14.1 11.8 8.9 71 2.6 SW 11 15 6 8 1021.7 1021.7 0.0
28/10:30pm 14.6 11.9 9.0 69 2.9 SSW 13 19 7 10 1021.7 1021.7 0.0
28/10:00pm 15.0 12.0 9.1 68 3.0 SSW 15 19 8 10 1021.8 1021.8 0.0
28/09:30pm 15.3 11.9 9.2 67 3.1 SSW 17 24 9 13 1021.9 1021.9 0.0
28/09:00pm 16.1 13.2 9.5 65 3.4 SSW 15 24 8 13 1021.8 1021.8 0.0
28/08:30pm 16.6 13.2 9.3 62 3.8 SSW 17 22 9 12 1021.5 1021.5 0.0
28/08:00pm 17.1 13.7 9.3 60 4.0 S 17 26 9 14 1021.3 1021.3 0.0
28/07:30pm 17.3 13.9 9.0 58 4.3 SSW 17 26 9 14 1021.2 1021.2 0.0
28/07:00pm 17.9 13.4 8.7 55 4.7 S 22 28 12 15 1020.6 1020.6 0.0
28/06:30pm 18.3 14.3 8.3 52 5.1 S 19 28 10 15 1020.2 1020.2 0.0
28/06:00pm 19.0 14.1 8.4 50 5.5 SSW 24 33 13 18 1019.6 1019.6 0.0
28/05:30pm 20.2 16.0 8.2 46 6.2 SSE 20 26 11 14 1019.1 1019.1 0.0
28/05:00pm 20.7 15.7 6.6 40 7.1 S 22 33 12 18 1018.5 1018.5 0.0
28/04:30pm 21.0 15.1 7.3 41 7.0 S 28 32 15 17 1018.1 1018.1 0.0
28/04:00pm 21.4 16.2 8.7 44 6.7 S 26 32 14 17 1017.6 1017.6 0.0
28/03:30pm 21.7 15.5 7.9 41 7.2 SSE 30 37 16 20 1017.2 1017.2 0.0
28/03:00pm 20.7 13.9 9.3 48 6.1 SSE 35 43 19 23 1017.0 1017.0 0.0
28/02:30pm 21.8 15.5 7.6 40 7.4 SSE 30 35 16 19 1016.6 1016.6 0.0
28/02:00pm 21.8 16.3 9.0 44 6.8 S 28 33 15 18 1016.7 1016.7 0.0
28/01:30pm 21.0 15.9 9.3 47 6.2 S 26 41 14 22 1016.6 1016.6 0.0
28/01:00pm 21.1 16.1 9.7 48 6.1 S 26 33 14 18 1016.5 1016.5 0.0
28/12:30pm 20.8 14.7 9.7 49 6.0 S 32 44 17 24 1016.3 1016.3 0.0
28/12:00pm 20.6 16.2 10.4 52 5.5 S 24 32 13 17 1016.4 1016.4 0.0
28/11:30am 19.8 16.3 10.8 56 4.9 SSW 20 30 11 16 1016.5 1016.5 0.0
28/11:00am 20.1 16.0 11.3 57 4.8 S 24 37 13 20 1016.5 1016.5 0.0
28/10:30am 19.4 14.8 10.9 58 4.6 SSW 26 37 14 20 1016.3 1016.3 0.0
28/10:00am 19.2 15.6 10.5 57 4.7 SSW 20 28 11 15 1016.4 1016.4 0.0
28/09:30am 18.8 14.6 11.1 61 4.2 SSW 24 33 13 18 1016.2 1016.2 0.0
28/09:00am 19.1 15.7 12.4 65 3.7 SSW 22 33 12 18 1016.0 1016.0 9.4
28/08:30am 17.7 13.6 11.5 67 3.4 SSW 24 30 13 16 1015.8 1015.8 9.4
28/08:00am 16.7 13.2 12.3 75 2.4 SW 22 33 12 18 1015.2 1015.2 9.4
28/07:30am 15.1 11.8 11.7 80 1.8 SW 20 28 11 15 1015.1 1015.1 9.4
28/07:00am 14.5 10.4 11.3 81 1.7 SW 24 33 13 18 1014.8 1014.8 9.4
28/06:30am 14.0 10.5 11.0 82 1.6 WSW 20 26 11 14 1014.9 1014.9 9.4
28/06:00am 13.7 10.0 10.1 79 1.9 WSW 20 28 11 15 1014.2 1014.2 9.4
28/05:30am 13.4 9.7 10.0 80 1.8 SW 20 30 11 16 1013.8 1013.8 9.4
28/05:00am 13.4 10.6 10.0 80 1.8 SW 15 22 8 12 1013.7 1013.7 9.4
28/04:30am 13.3 10.7 9.5 78 1.9 WSW 13 20 7 11 1013.4 1013.4 9.4
28/04:00am 13.3 10.7 9.4 77 2.0 WSW 13 17 7 9 1013.5 1013.5 9.4
28/03:30am 12.7 10.1 9.2 79 1.8 WSW 13 22 7 12 1013.6 1013.6 9.4
28/03:00am 12.6 9.9 8.9 78 1.9 WSW 13 17 7 9 1013.8 1013.8 9.4
28/02:30am 12.6 9.8 8.5 76 2.0 WSW 13 17 7 9 1013.8 1013.8 9.4
28/02:00am 12.9 10.1 8.4 74 2.2 WSW 13 19 7 10 1013.9 1013.9 9.4
28/01:30am 13.3 10.1 8.4 72 2.4 WSW 15 20 8 11 1014.2 1014.2 9.4
28/01:00am 13.2 10.7 8.3 72 2.4 WSW 11 15 6 8 1014.3 1014.3 9.4
28/12:30am 12.8 9.8 7.7 71 2.5 WSW 13 19 7 10 1014.2 1014.2 9.4
28/12:00am 12.9 10.3 7.8 71 2.5 W 11 15 6 8 1014.5 1014.5 9.4
 
Date/Time
EST
Tmp

°C
App
Tmp
°C
Dew
Point
°C
Rel
Hum
%
Delta-T

°C
Wind Press
QNH
hPa
Press
MSL
hPa
Rain
since
9 am
mm
Dir
 
Spd
km/h
Gust
km/h
Spd
kts
Gust
kts
27/11:30pm 13.0 10.0 7.9 71 2.5 W 13 15 7 8 1014.4 1014.4 9.4
27/11:00pm 12.9 10.7 8.0 72 2.4 W 9 13 5 7 1014.4 1014.4 9.4
27/10:30pm 13.1 10.6 8.4 73 2.3 WNW 11 13 6 7 1014.4 1014.4 9.4
27/10:00pm 13.3 10.8 8.4 72 2.4 W 11 13 6 7 1014.4 1014.4 9.4
27/09:30pm 13.8 11.8 8.6 71 2.6 W 9 15 5 8 1014.4 1014.4 9.4
27/09:00pm 14.2 11.9 9.0 71 2.6 WNW 11 17 6 9 1014.7 1014.7 9.4
27/08:30pm 14.3 12.5 9.3 72 2.6 NW 9 15 5 8 1014.9 1014.9 9.4
27/08:00pm 14.7 12.4 9.1 69 2.9 WNW 11 17 6 9 1014.9 1014.9 9.4
27/07:30pm 15.0 12.3 9.1 68 3.0 W 13 17 7 9 1014.8 1014.8 9.4
27/07:00pm 14.8 11.8 9.4 70 2.8 W 15 22 8 12 1014.7 1014.7 9.4
27/06:30pm 14.7 11.4 9.7 72 2.6 WSW 17 26 9 14 1014.3 1014.3 9.4
27/06:00pm 14.3 12.0 10.3 77 2.1 WSW 13 19 7 10 1014.5 1014.5 9.4
27/05:30pm 14.1 12.7 10.9 81 1.7 WSW 9 11 5 6 1014.3 1014.3 9.4
27/05:00pm 13.6 11.1 11.1 85 1.3 WSW 15 19 8 10 1014.5 1014.5 9.4
27/04:30pm 14.0 11.6 10.0 77 2.1 WSW 13 20 7 11 1014.5 1014.5 9.0
27/04:00pm 14.1 11.1 10.5 79 1.9 WSW 17 28 9 15 1014.2 1014.2 6.2
27/03:41pm 17.5 11.9 8.9 57 4.5 WSW 28 61 15 33 1013.5 1013.5 0.0
27/03:30pm 19.0 17.3 11.1 60 4.3 ESE 11 15 6 8 1013.0 1013.0 0.0
27/03:00pm 19.6 15.4 11.1 58 4.6 ESE 24 33 13 18 1012.5 1012.5 0.0
27/02:30pm 20.1 18.2 11.8 59 4.6 N 13 15 7 8 1012.3 1012.3 0.0

Latest Capital City Observations: Canberra | Sydney | Melbourne | Brisbane | Adelaide | Perth | Hobart | Darwin

Other Formats:

Comma delimited format used in spreadsheet applications
http://www.bom.gov.au/fwo/IDQ60901/IDQ60901.95591.axf

JavaScript Object Notation format (JSON) in row-major order
http://www.bom.gov.au/fwo/IDQ60901/IDQ60901.95591.json